sensor_id;sensor_type;location;lat;lon;timestamp;P1;durP1;ratioP1;P2;durP2;ratioP2
11598;SDS011;5855;48.840;9.188;2022-12-13T00:01:39;22.50;;;14.87;;
11598;SDS011;5855;48.840;9.188;2022-12-13T00:04:07;21.80;;;14.30;;
11598;SDS011;5855;48.840;9.188;2022-12-13T00:06:35;22.47;;;14.83;;
11598;SDS011;5855;48.840;9.188;2022-12-13T00:09:02;22.57;;;16.00;;
11598;SDS011;5855;48.840;9.188;2022-12-13T00:11:30;23.13;;;15.57;;
11598;SDS011;5855;48.840;9.188;2022-12-13T00:13:57;21.77;;;15.60;;
11598;SDS011;5855;48.840;9.188;2022-12-13T00:16:25;22.90;;;14.50;;
11598;SDS011;5855;48.840;9.188;2022-12-13T00:18:54;24.87;;;15.33;;
11598;SDS011;5855;48.840;9.188;2022-12-13T00:21:23;21.67;;;14.63;;
11598;SDS011;5855;48.840;9.188;2022-12-13T00:23:51;24.67;;;14.50;;
11598;SDS011;5855;48.840;9.188;2022-12-13T00:26:18;21.27;;;15.07;;
11598;SDS011;5855;48.840;9.188;2022-12-13T00:28:47;20.17;;;13.97;;
11598;SDS011;5855;48.840;9.188;2022-12-13T00:31:15;20.97;;;14.37;;
11598;SDS011;5855;48.840;9.188;2022-12-13T00:33:43;19.80;;;14.10;;
11598;SDS011;5855;48.840;9.188;2022-12-13T00:36:11;21.13;;;14.40;;
11598;SDS011;5855;48.840;9.188;2022-12-13T00:38:38;20.90;;;14.47;;
11598;SDS011;5855;48.840;9.188;2022-12-13T00:41:08;20.53;;;14.23;;
11598;SDS011;5855;48.840;9.188;2022-12-13T00:43:36;20.57;;;14.63;;
11598;SDS011;5855;48.840;9.188;2022-12-13T00:46:03;23.67;;;14.93;;
11598;SDS011;5855;48.840;9.188;2022-12-13T00:48:31;21.40;;;15.23;;
11598;SDS011;5855;48.840;9.188;2022-12-13T00:50:58;20.70;;;14.73;;
11598;SDS011;5855;48.840;9.188;2022-12-13T00:53:27;22.63;;;14.93;;
11598;SDS011;5855;48.840;9.188;2022-12-13T00:55:53;23.43;;;14.87;;
11598;SDS011;5855;48.840;9.188;2022-12-13T00:58:21;23.33;;;15.07;;
11598;SDS011;5855;48.840;9.188;2022-12-13T01:00:48;21.90;;;14.27;;
11598;SDS011;5855;48.840;9.188;2022-12-13T01:03:14;20.87;;;14.90;;
11598;SDS011;5855;48.840;9.188;2022-12-13T01:05:51;22.90;;;15.03;;
11598;SDS011;5855;48.840;9.188;2022-12-13T01:08:18;20.33;;;13.80;;
11598;SDS011;5855;48.840;9.188;2022-12-13T01:10:46;21.73;;;13.67;;
11598;SDS011;5855;48.840;9.188;2022-12-13T01:13:13;21.30;;;14.60;;
11598;SDS011;5855;48.840;9.188;2022-12-13T01:15:40;20.77;;;14.73;;
11598;SDS011;5855;48.840;9.188;2022-12-13T01:18:07;20.33;;;14.37;;
11598;SDS011;5855;48.840;9.188;2022-12-13T01:20:35;21.67;;;14.23;;
11598;SDS011;5855;48.840;9.188;2022-12-13T01:23:02;20.13;;;14.10;;
11598;SDS011;5855;48.840;9.188;2022-12-13T01:25:29;18.93;;;13.73;;
11598;SDS011;5855;48.840;9.188;2022-12-13T01:27:58;22.33;;;14.70;;
11598;SDS011;5855;48.840;9.188;2022-12-13T01:30:25;23.27;;;14.70;;
11598;SDS011;5855;48.840;9.188;2022-12-13T01:32:52;20.80;;;14.30;;
11598;SDS011;5855;48.840;9.188;2022-12-13T01:35:19;20.23;;;14.17;;
11598;SDS011;5855;48.840;9.188;2022-12-13T01:37:46;19.80;;;13.63;;
11598;SDS011;5855;48.840;9.188;2022-12-13T01:40:13;19.77;;;14.40;;
11598;SDS011;5855;48.840;9.188;2022-12-13T01:42:40;20.73;;;14.33;;
11598;SDS011;5855;48.840;9.188;2022-12-13T01:45:16;20.30;;;14.57;;
11598;SDS011;5855;48.840;9.188;2022-12-13T01:47:48;21.33;;;13.97;;
11598;SDS011;5855;48.840;9.188;2022-12-13T01:50:19;25.77;;;15.13;;
11598;SDS011;5855;48.840;9.188;2022-12-13T01:52:49;20.93;;;14.70;;
11598;SDS011;5855;48.840;9.188;2022-12-13T01:55:17;19.20;;;14.03;;
11598;SDS011;5855;48.840;9.188;2022-12-13T01:57:46;21.63;;;14.93;;
11598;SDS011;5855;48.840;9.188;2022-12-13T02:00:16;21.07;;;14.90;;
11598;SDS011;5855;48.840;9.188;2022-12-13T02:02:44;21.57;;;14.20;;
11598;SDS011;5855;48.840;9.188;2022-12-13T02:05:15;19.53;;;14.67;;
11598;SDS011;5855;48.840;9.188;2022-12-13T02:07:47;19.13;;;13.47;;
11598;SDS011;5855;48.840;9.188;2022-12-13T02:10:15;22.20;;;14.80;;
11598;SDS011;5855;48.840;9.188;2022-12-13T02:12:42;20.27;;;14.30;;
11598;SDS011;5855;48.840;9.188;2022-12-13T02:15:10;21.57;;;14.70;;
11598;SDS011;5855;48.840;9.188;2022-12-13T02:17:44;22.40;;;14.40;;
11598;SDS011;5855;48.840;9.188;2022-12-13T02:20:23;22.40;;;15.20;;
11598;SDS011;5855;48.840;9.188;2022-12-13T02:23:24;23.73;;;15.10;;
11598;SDS011;5855;48.840;9.188;2022-12-13T02:26:28;20.70;;;14.50;;
11598;SDS011;5855;48.840;9.188;2022-12-13T02:29:10;21.93;;;14.93;;
11598;SDS011;5855;48.840;9.188;2022-12-13T02:32:05;22.43;;;14.80;;
11598;SDS011;5855;48.840;9.188;2022-12-13T02:34:40;22.30;;;14.87;;
11598;SDS011;5855;48.840;9.188;2022-12-13T02:37:14;21.80;;;14.57;;
11598;SDS011;5855;48.840;9.188;2022-12-13T02:39:46;21.47;;;15.20;;
11598;SDS011;5855;48.840;9.188;2022-12-13T02:42:17;22.13;;;14.80;;
11598;SDS011;5855;48.840;9.188;2022-12-13T02:44:49;21.90;;;15.07;;
11598;SDS011;5855;48.840;9.188;2022-12-13T02:47:22;22.93;;;15.40;;
11598;SDS011;5855;48.840;9.188;2022-12-13T02:49:51;24.10;;;15.83;;
11598;SDS011;5855;48.840;9.188;2022-12-13T02:52:22;22.80;;;15.43;;
11598;SDS011;5855;48.840;9.188;2022-12-13T02:54:52;23.53;;;15.30;;
11598;SDS011;5855;48.840;9.188;2022-12-13T02:57:27;21.37;;;14.07;;
11598;SDS011;5855;48.840;9.188;2022-12-13T02:59:55;22.83;;;15.60;;
11598;SDS011;5855;48.840;9.188;2022-12-13T03:02:29;21.73;;;14.60;;
11598;SDS011;5855;48.840;9.188;2022-12-13T03:05:08;20.60;;;14.50;;
11598;SDS011;5855;48.840;9.188;2022-12-13T03:08:07;22.40;;;15.27;;
11598;SDS011;5855;48.840;9.188;2022-12-13T03:10:45;22.47;;;15.07;;
11598;SDS011;5855;48.840;9.188;2022-12-13T03:13:19;20.67;;;14.10;;
11598;SDS011;5855;48.840;9.188;2022-12-13T03:16:05;19.83;;;14.37;;
11598;SDS011;5855;48.840;9.188;2022-12-13T03:18:38;22.40;;;14.53;;
11598;SDS011;5855;48.840;9.188;2022-12-13T03:21:07;21.03;;;14.03;;
11598;SDS011;5855;48.840;9.188;2022-12-13T03:23:34;19.63;;;14.13;;
11598;SDS011;5855;48.840;9.188;2022-12-13T03:26:04;21.07;;;14.07;;
11598;SDS011;5855;48.840;9.188;2022-12-13T03:28:34;21.10;;;14.73;;
11598;SDS011;5855;48.840;9.188;2022-12-13T03:31:01;21.53;;;14.43;;
11598;SDS011;5855;48.840;9.188;2022-12-13T03:33:28;20.80;;;14.33;;
11598;SDS011;5855;48.840;9.188;2022-12-13T03:35:57;20.33;;;14.00;;
11598;SDS011;5855;48.840;9.188;2022-12-13T03:38:24;22.17;;;15.40;;
11598;SDS011;5855;48.840;9.188;2022-12-13T03:40:52;21.30;;;14.77;;
11598;SDS011;5855;48.840;9.188;2022-12-13T03:43:23;20.37;;;14.37;;
11598;SDS011;5855;48.840;9.188;2022-12-13T03:45:50;22.67;;;14.40;;
11598;SDS011;5855;48.840;9.188;2022-12-13T03:48:18;23.33;;;15.07;;
11598;SDS011;5855;48.840;9.188;2022-12-13T03:50:45;20.73;;;14.43;;
11598;SDS011;5855;48.840;9.188;2022-12-13T03:53:14;19.37;;;13.50;;
11598;SDS011;5855;48.840;9.188;2022-12-13T03:55:40;23.73;;;15.10;;
11598;SDS011;5855;48.840;9.188;2022-12-13T03:58:07;19.50;;;14.33;;
11598;SDS011;5855;48.840;9.188;2022-12-13T04:00:34;22.53;;;14.63;;
11598;SDS011;5855;48.840;9.188;2022-12-13T04:03:01;22.30;;;15.40;;
11598;SDS011;5855;48.840;9.188;2022-12-13T04:05:28;24.70;;;15.40;;
11598;SDS011;5855;48.840;9.188;2022-12-13T04:07:54;23.90;;;15.23;;
11598;SDS011;5855;48.840;9.188;2022-12-13T04:10:23;23.10;;;15.63;;
11598;SDS011;5855;48.840;9.188;2022-12-13T04:12:50;23.13;;;15.43;;
11598;SDS011;5855;48.840;9.188;2022-12-13T04:15:34;21.83;;;14.73;;
11598;SDS011;5855;48.840;9.188;2022-12-13T04:18:01;22.47;;;15.70;;
11598;SDS011;5855;48.840;9.188;2022-12-13T04:20:28;21.60;;;14.80;;
11598;SDS011;5855;48.840;9.188;2022-12-13T04:22:55;21.57;;;14.60;;
11598;SDS011;5855;48.840;9.188;2022-12-13T04:25:23;24.17;;;16.17;;
11598;SDS011;5855;48.840;9.188;2022-12-13T04:27:50;21.87;;;15.27;;
11598;SDS011;5855;48.840;9.188;2022-12-13T04:30:17;19.43;;;13.60;;
11598;SDS011;5855;48.840;9.188;2022-12-13T04:32:44;21.97;;;14.33;;
11598;SDS011;5855;48.840;9.188;2022-12-13T04:35:11;24.40;;;15.30;;
11598;SDS011;5855;48.840;9.188;2022-12-13T04:37:38;23.93;;;14.77;;
11598;SDS011;5855;48.840;9.188;2022-12-13T04:40:05;20.97;;;14.70;;
11598;SDS011;5855;48.840;9.188;2022-12-13T04:42:34;23.03;;;15.13;;
11598;SDS011;5855;48.840;9.188;2022-12-13T04:45:01;23.90;;;14.93;;
11598;SDS011;5855;48.840;9.188;2022-12-13T04:47:28;22.63;;;14.70;;
11598;SDS011;5855;48.840;9.188;2022-12-13T04:49:54;20.07;;;14.47;;
11598;SDS011;5855;48.840;9.188;2022-12-13T04:52:21;21.47;;;14.40;;
11598;SDS011;5855;48.840;9.188;2022-12-13T04:54:48;21.63;;;14.60;;
11598;SDS011;5855;48.840;9.188;2022-12-13T04:57:15;21.43;;;13.93;;
11598;SDS011;5855;48.840;9.188;2022-12-13T04:59:43;21.13;;;14.90;;
11598;SDS011;5855;48.840;9.188;2022-12-13T05:02:11;20.67;;;13.93;;
11598;SDS011;5855;48.840;9.188;2022-12-13T05:04:38;21.20;;;14.10;;
11598;SDS011;5855;48.840;9.188;2022-12-13T05:07:05;23.60;;;14.87;;
11598;SDS011;5855;48.840;9.188;2022-12-13T05:09:34;21.53;;;15.40;;
11598;SDS011;5855;48.840;9.188;2022-12-13T05:12:01;21.03;;;13.77;;
11598;SDS011;5855;48.840;9.188;2022-12-13T05:14:28;24.20;;;14.50;;
11598;SDS011;5855;48.840;9.188;2022-12-13T05:16:57;20.80;;;14.53;;
11598;SDS011;5855;48.840;9.188;2022-12-13T05:19:24;21.50;;;13.97;;
11598;SDS011;5855;48.840;9.188;2022-12-13T05:21:51;22.57;;;14.90;;
11598;SDS011;5855;48.840;9.188;2022-12-13T05:24:18;20.67;;;13.80;;
11598;SDS011;5855;48.840;9.188;2022-12-13T05:26:45;19.90;;;13.60;;
11598;SDS011;5855;48.840;9.188;2022-12-13T05:29:12;21.27;;;14.57;;
11598;SDS011;5855;48.840;9.188;2022-12-13T05:31:39;23.83;;;14.20;;
11598;SDS011;5855;48.840;9.188;2022-12-13T05:34:07;19.47;;;13.87;;
11598;SDS011;5855;48.840;9.188;2022-12-13T05:36:34;23.37;;;15.23;;
11598;SDS011;5855;48.840;9.188;2022-12-13T05:39:00;19.47;;;13.97;;
11598;SDS011;5855;48.840;9.188;2022-12-13T05:41:28;21.77;;;13.03;;
11598;SDS011;5855;48.840;9.188;2022-12-13T05:43:58;21.03;;;14.13;;
11598;SDS011;5855;48.840;9.188;2022-12-13T05:46:25;21.20;;;14.30;;
11598;SDS011;5855;48.840;9.188;2022-12-13T05:48:51;20.10;;;13.63;;
11598;SDS011;5855;48.840;9.188;2022-12-13T05:51:19;21.20;;;14.03;;
11598;SDS011;5855;48.840;9.188;2022-12-13T05:53:46;22.00;;;15.07;;
11598;SDS011;5855;48.840;9.188;2022-12-13T05:56:13;20.23;;;13.70;;
11598;SDS011;5855;48.840;9.188;2022-12-13T05:58:40;21.93;;;13.63;;
11598;SDS011;5855;48.840;9.188;2022-12-13T06:01:07;21.80;;;14.73;;
11598;SDS011;5855;48.840;9.188;2022-12-13T06:03:36;22.83;;;14.83;;
11598;SDS011;5855;48.840;9.188;2022-12-13T06:06:03;22.40;;;15.10;;
11598;SDS011;5855;48.840;9.188;2022-12-13T06:08:32;20.67;;;14.73;;
11598;SDS011;5855;48.840;9.188;2022-12-13T06:11:00;22.50;;;14.97;;
11598;SDS011;5855;48.840;9.188;2022-12-13T06:13:28;21.60;;;13.17;;
11598;SDS011;5855;48.840;9.188;2022-12-13T06:15:58;22.63;;;14.53;;
11598;SDS011;5855;48.840;9.188;2022-12-13T06:18:26;19.47;;;14.03;;
11598;SDS011;5855;48.840;9.188;2022-12-13T06:20:54;20.53;;;14.37;;
11598;SDS011;5855;48.840;9.188;2022-12-13T06:23:22;19.50;;;13.80;;
11598;SDS011;5855;48.840;9.188;2022-12-13T06:25:51;19.33;;;13.30;;
11598;SDS011;5855;48.840;9.188;2022-12-13T06:28:18;21.07;;;14.30;;
11598;SDS011;5855;48.840;9.188;2022-12-13T06:30:45;21.27;;;14.40;;
11598;SDS011;5855;48.840;9.188;2022-12-13T06:33:11;20.17;;;13.80;;
11598;SDS011;5855;48.840;9.188;2022-12-13T06:35:38;21.97;;;13.50;;
11598;SDS011;5855;48.840;9.188;2022-12-13T06:38:05;20.80;;;14.30;;
11598;SDS011;5855;48.840;9.188;2022-12-13T06:40:32;21.07;;;14.17;;
11598;SDS011;5855;48.840;9.188;2022-12-13T06:43:00;20.83;;;14.33;;
11598;SDS011;5855;48.840;9.188;2022-12-13T06:45:27;21.37;;;15.10;;
11598;SDS011;5855;48.840;9.188;2022-12-13T06:47:54;22.27;;;15.13;;
11598;SDS011;5855;48.840;9.188;2022-12-13T06:50:21;25.70;;;15.97;;
11598;SDS011;5855;48.840;9.188;2022-12-13T06:52:48;22.67;;;15.27;;
11598;SDS011;5855;48.840;9.188;2022-12-13T06:55:15;23.83;;;15.07;;
11598;SDS011;5855;48.840;9.188;2022-12-13T06:57:42;19.80;;;14.00;;
11598;SDS011;5855;48.840;9.188;2022-12-13T07:00:10;23.50;;;15.23;;
11598;SDS011;5855;48.840;9.188;2022-12-13T07:02:38;20.53;;;14.30;;
11598;SDS011;5855;48.840;9.188;2022-12-13T07:05:05;22.50;;;14.37;;
11598;SDS011;5855;48.840;9.188;2022-12-13T07:07:33;18.97;;;13.63;;
11598;SDS011;5855;48.840;9.188;2022-12-13T07:10:00;20.43;;;14.13;;
11598;SDS011;5855;48.840;9.188;2022-12-13T07:12:27;18.73;;;14.13;;
11598;SDS011;5855;48.840;9.188;2022-12-13T07:14:53;18.80;;;13.40;;
11598;SDS011;5855;48.840;9.188;2022-12-13T07:17:21;20.70;;;14.60;;
11598;SDS011;5855;48.840;9.188;2022-12-13T07:19:48;20.17;;;13.93;;
11598;SDS011;5855;48.840;9.188;2022-12-13T07:22:15;20.87;;;13.93;;
11598;SDS011;5855;48.840;9.188;2022-12-13T07:24:42;21.97;;;14.27;;
11598;SDS011;5855;48.840;9.188;2022-12-13T07:27:09;18.33;;;13.17;;
11598;SDS011;5855;48.840;9.188;2022-12-13T07:29:36;23.03;;;14.20;;
11598;SDS011;5855;48.840;9.188;2022-12-13T07:32:03;23.27;;;14.77;;
11598;SDS011;5855;48.840;9.188;2022-12-13T07:34:31;19.10;;;13.93;;
11598;SDS011;5855;48.840;9.188;2022-12-13T07:36:58;22.37;;;13.73;;
11598;SDS011;5855;48.840;9.188;2022-12-13T07:39:25;21.17;;;14.27;;
11598;SDS011;5855;48.840;9.188;2022-12-13T07:41:52;22.97;;;14.60;;
11598;SDS011;5855;48.840;9.188;2022-12-13T07:44:20;22.23;;;14.90;;
11598;SDS011;5855;48.840;9.188;2022-12-13T07:46:47;19.53;;;13.60;;
11598;SDS011;5855;48.840;9.188;2022-12-13T07:49:14;21.00;;;14.47;;
11598;SDS011;5855;48.840;9.188;2022-12-13T07:51:42;22.77;;;16.10;;
11598;SDS011;5855;48.840;9.188;2022-12-13T07:54:09;20.00;;;14.63;;
11598;SDS011;5855;48.840;9.188;2022-12-13T07:56:36;19.67;;;14.37;;
11598;SDS011;5855;48.840;9.188;2022-12-13T07:59:03;22.50;;;15.20;;
11598;SDS011;5855;48.840;9.188;2022-12-13T08:01:30;20.00;;;14.67;;
11598;SDS011;5855;48.840;9.188;2022-12-13T08:03:58;22.53;;;15.30;;
11598;SDS011;5855;48.840;9.188;2022-12-13T08:06:25;23.33;;;14.23;;
11598;SDS011;5855;48.840;9.188;2022-12-13T08:08:55;21.17;;;15.33;;
11598;SDS011;5855;48.840;9.188;2022-12-13T08:11:22;23.07;;;16.47;;
11598;SDS011;5855;48.840;9.188;2022-12-13T08:13:49;21.90;;;15.13;;
11598;SDS011;5855;48.840;9.188;2022-12-13T08:16:16;20.90;;;15.13;;
11598;SDS011;5855;48.840;9.188;2022-12-13T08:18:43;19.23;;;14.50;;
11598;SDS011;5855;48.840;9.188;2022-12-13T08:21:11;19.40;;;14.03;;
11598;SDS011;5855;48.840;9.188;2022-12-13T08:23:39;20.57;;;13.63;;
11598;SDS011;5855;48.840;9.188;2022-12-13T08:26:07;21.53;;;15.03;;
11598;SDS011;5855;48.840;9.188;2022-12-13T08:28:34;22.83;;;14.87;;
11598;SDS011;5855;48.840;9.188;2022-12-13T08:31:05;20.13;;;13.57;;
11598;SDS011;5855;48.840;9.188;2022-12-13T08:33:35;19.63;;;14.00;;
11598;SDS011;5855;48.840;9.188;2022-12-13T08:36:07;16.37;;;12.00;;
11598;SDS011;5855;48.840;9.188;2022-12-13T08:38:35;18.27;;;13.27;;
11598;SDS011;5855;48.840;9.188;2022-12-13T08:41:02;17.40;;;12.70;;
11598;SDS011;5855;48.840;9.188;2022-12-13T08:43:30;18.37;;;12.77;;
11598;SDS011;5855;48.840;9.188;2022-12-13T08:45:57;18.53;;;12.77;;
11598;SDS011;5855;48.840;9.188;2022-12-13T08:48:24;17.43;;;12.70;;
11598;SDS011;5855;48.840;9.188;2022-12-13T08:50:51;19.70;;;12.73;;
11598;SDS011;5855;48.840;9.188;2022-12-13T08:53:18;18.73;;;12.93;;
11598;SDS011;5855;48.840;9.188;2022-12-13T08:55:45;17.03;;;12.67;;
11598;SDS011;5855;48.840;9.188;2022-12-13T08:58:12;19.33;;;13.50;;
11598;SDS011;5855;48.840;9.188;2022-12-13T09:00:40;18.33;;;13.03;;
11598;SDS011;5855;48.840;9.188;2022-12-13T09:03:09;17.97;;;12.70;;
11598;SDS011;5855;48.840;9.188;2022-12-13T09:05:36;18.53;;;13.57;;
11598;SDS011;5855;48.840;9.188;2022-12-13T09:08:03;19.83;;;14.13;;
11598;SDS011;5855;48.840;9.188;2022-12-13T09:10:30;18.33;;;13.40;;
11598;SDS011;5855;48.840;9.188;2022-12-13T09:12:57;17.80;;;13.07;;
11598;SDS011;5855;48.840;9.188;2022-12-13T09:15:25;17.40;;;12.67;;
11598;SDS011;5855;48.840;9.188;2022-12-13T09:17:54;18.60;;;13.37;;
11598;SDS011;5855;48.840;9.188;2022-12-13T09:20:21;17.00;;;11.73;;
11598;SDS011;5855;48.840;9.188;2022-12-13T09:22:48;15.10;;;11.47;;
11598;SDS011;5855;48.840;9.188;2022-12-13T09:25:15;17.50;;;12.30;;
11598;SDS011;5855;48.840;9.188;2022-12-13T09:27:41;16.67;;;12.38;;
11598;SDS011;5855;48.840;9.188;2022-12-13T09:30:09;16.13;;;11.90;;
11598;SDS011;5855;48.840;9.188;2022-12-13T09:32:38;16.43;;;12.43;;
11598;SDS011;5855;48.840;9.188;2022-12-13T09:35:07;15.52;;;11.35;;
11598;SDS011;5855;48.840;9.188;2022-12-13T09:37:34;15.27;;;11.83;;
11598;SDS011;5855;48.840;9.188;2022-12-13T09:40:01;16.30;;;11.37;;
11598;SDS011;5855;48.840;9.188;2022-12-13T09:42:28;17.53;;;12.30;;
11598;SDS011;5855;48.840;9.188;2022-12-13T09:44:57;15.27;;;12.07;;
11598;SDS011;5855;48.840;9.188;2022-12-13T09:47:27;15.97;;;11.63;;
11598;SDS011;5855;48.840;9.188;2022-12-13T09:49:57;14.73;;;11.17;;
11598;SDS011;5855;48.840;9.188;2022-12-13T09:52:27;16.00;;;11.43;;
11598;SDS011;5855;48.840;9.188;2022-12-13T09:55:06;15.50;;;11.10;;
11598;SDS011;5855;48.840;9.188;2022-12-13T09:57:46;15.75;;;11.40;;
11598;SDS011;5855;48.840;9.188;2022-12-13T10:00:14;15.93;;;10.63;;
11598;SDS011;5855;48.840;9.188;2022-12-13T10:02:43;15.35;;;10.80;;
11598;SDS011;5855;48.840;9.188;2022-12-13T10:05:14;14.10;;;11.03;;
11598;SDS011;5855;48.840;9.188;2022-12-13T10:07:45;13.63;;;10.55;;
11598;SDS011;5855;48.840;9.188;2022-12-13T10:10:12;16.30;;;10.63;;
11598;SDS011;5855;48.840;9.188;2022-12-13T10:12:40;14.65;;;11.32;;
11598;SDS011;5855;48.840;9.188;2022-12-13T10:15:09;14.27;;;10.82;;
11598;SDS011;5855;48.840;9.188;2022-12-13T10:17:41;14.68;;;11.02;;
11598;SDS011;5855;48.840;9.188;2022-12-13T10:20:15;17.08;;;11.85;;
11598;SDS011;5855;48.840;9.188;2022-12-13T10:22:45;15.80;;;11.13;;
11598;SDS011;5855;48.840;9.188;2022-12-13T10:25:12;15.90;;;11.18;;
11598;SDS011;5855;48.840;9.188;2022-12-13T10:27:41;15.40;;;10.90;;
11598;SDS011;5855;48.840;9.188;2022-12-13T10:30:10;16.15;;;11.50;;
11598;SDS011;5855;48.840;9.188;2022-12-13T10:32:46;15.52;;;10.77;;
11598;SDS011;5855;48.840;9.188;2022-12-13T10:35:20;16.00;;;11.18;;
11598;SDS011;5855;48.840;9.188;2022-12-13T10:37:52;16.50;;;11.60;;
11598;SDS011;5855;48.840;9.188;2022-12-13T10:40:25;14.48;;;10.88;;
11598;SDS011;5855;48.840;9.188;2022-12-13T10:43:05;14.52;;;10.73;;
11598;SDS011;5855;48.840;9.188;2022-12-13T10:45:33;14.85;;;11.38;;
11598;SDS011;5855;48.840;9.188;2022-12-13T10:48:01;17.13;;;11.07;;
11598;SDS011;5855;48.840;9.188;2022-12-13T10:50:29;16.00;;;11.55;;
11598;SDS011;5855;48.840;9.188;2022-12-13T10:52:58;14.05;;;10.85;;
11598;SDS011;5855;48.840;9.188;2022-12-13T10:55:27;13.65;;;10.77;;
11598;SDS011;5855;48.840;9.188;2022-12-13T10:57:56;16.30;;;10.88;;
11598;SDS011;5855;48.840;9.188;2022-12-13T11:00:29;15.15;;;10.82;;
11598;SDS011;5855;48.840;9.188;2022-12-13T11:02:59;15.48;;;11.18;;
11598;SDS011;5855;48.840;9.188;2022-12-13T11:05:27;14.38;;;10.90;;
11598;SDS011;5855;48.840;9.188;2022-12-13T11:07:57;16.23;;;10.85;;
11598;SDS011;5855;48.840;9.188;2022-12-13T11:10:38;13.82;;;10.82;;
11598;SDS011;5855;48.840;9.188;2022-12-13T11:13:05;16.00;;;10.90;;
11598;SDS011;5855;48.840;9.188;2022-12-13T11:15:34;14.10;;;10.95;;
11598;SDS011;5855;48.840;9.188;2022-12-13T11:18:04;12.90;;;10.05;;
11598;SDS011;5855;48.840;9.188;2022-12-13T11:20:33;14.32;;;10.07;;
11598;SDS011;5855;48.840;9.188;2022-12-13T11:23:04;12.02;;;10.18;;
11598;SDS011;5855;48.840;9.188;2022-12-13T11:25:35;11.43;;;9.80;;
11598;SDS011;5855;48.840;9.188;2022-12-13T11:28:11;14.70;;;11.13;;
11598;SDS011;5855;48.840;9.188;2022-12-13T11:30:49;14.95;;;11.07;;
11598;SDS011;5855;48.840;9.188;2022-12-13T11:33:25;14.68;;;11.38;;
11598;SDS011;5855;48.840;9.188;2022-12-13T11:36:00;16.05;;;12.20;;
11598;SDS011;5855;48.840;9.188;2022-12-13T11:38:36;16.05;;;11.57;;
11598;SDS011;5855;48.840;9.188;2022-12-13T11:41:16;15.02;;;11.02;;
11598;SDS011;5855;48.840;9.188;2022-12-13T11:43:48;12.18;;;10.18;;
11598;SDS011;5855;48.840;9.188;2022-12-13T11:46:21;14.18;;;11.45;;
11598;SDS011;5855;48.840;9.188;2022-12-13T11:48:57;13.48;;;11.30;;
11598;SDS011;5855;48.840;9.188;2022-12-13T11:51:30;14.43;;;10.40;;
11598;SDS011;5855;48.840;9.188;2022-12-13T11:54:05;14.50;;;10.43;;
11598;SDS011;5855;48.840;9.188;2022-12-13T11:56:37;14.80;;;11.35;;
11598;SDS011;5855;48.840;9.188;2022-12-13T11:59:08;13.95;;;10.88;;
11598;SDS011;5855;48.840;9.188;2022-12-13T12:01:47;14.07;;;11.25;;
11598;SDS011;5855;48.840;9.188;2022-12-13T12:04:18;14.70;;;11.05;;
11598;SDS011;5855;48.840;9.188;2022-12-13T12:06:53;13.20;;;9.82;;
11598;SDS011;5855;48.840;9.188;2022-12-13T12:09:25;13.32;;;10.05;;
11598;SDS011;5855;48.840;9.188;2022-12-13T12:11:56;13.98;;;10.52;;
11598;SDS011;5855;48.840;9.188;2022-12-13T12:14:29;12.75;;;10.40;;
11598;SDS011;5855;48.840;9.188;2022-12-13T12:17:05;13.40;;;10.07;;
11598;SDS011;5855;48.840;9.188;2022-12-13T12:19:37;13.32;;;10.40;;
11598;SDS011;5855;48.840;9.188;2022-12-13T12:22:10;11.98;;;9.63;;
11598;SDS011;5855;48.840;9.188;2022-12-13T12:24:59;12.48;;;9.85;;
11598;SDS011;5855;48.840;9.188;2022-12-13T12:27:36;11.40;;;9.60;;
11598;SDS011;5855;48.840;9.188;2022-12-13T12:30:09;12.48;;;10.35;;
11598;SDS011;5855;48.840;9.188;2022-12-13T12:32:48;14.65;;;10.55;;
11598;SDS011;5855;48.840;9.188;2022-12-13T12:38:13;12.20;;;9.68;;
11598;SDS011;5855;48.840;9.188;2022-12-13T12:40:54;14.07;;;9.45;;
11598;SDS011;5855;48.840;9.188;2022-12-13T12:43:36;11.55;;;9.48;;
11598;SDS011;5855;48.840;9.188;2022-12-13T12:46:09;11.88;;;9.85;;
11598;SDS011;5855;48.840;9.188;2022-12-13T12:49:00;12.85;;;10.48;;
11598;SDS011;5855;48.840;9.188;2022-12-13T12:51:46;17.88;;;10.18;;
11598;SDS011;5855;48.840;9.188;2022-12-13T12:54:24;13.35;;;10.02;;
11598;SDS011;5855;48.840;9.188;2022-12-13T12:57:03;14.85;;;10.98;;
11598;SDS011;5855;48.840;9.188;2022-12-13T12:59:38;14.63;;;11.23;;
11598;SDS011;5855;48.840;9.188;2022-12-13T13:02:13;12.13;;;9.60;;
11598;SDS011;5855;48.840;9.188;2022-12-13T13:04:45;12.10;;;9.75;;
11598;SDS011;5855;48.840;9.188;2022-12-13T13:07:19;14.77;;;10.15;;
11598;SDS011;5855;48.840;9.188;2022-12-13T13:09:51;12.48;;;9.82;;
11598;SDS011;5855;48.840;9.188;2022-12-13T13:12:20;13.40;;;9.98;;
11598;SDS011;5855;48.840;9.188;2022-12-13T13:14:47;11.23;;;9.23;;
11598;SDS011;5855;48.840;9.188;2022-12-13T13:20:11;14.07;;;10.82;;
11598;SDS011;5855;48.840;9.188;2022-12-13T13:22:43;12.63;;;10.50;;
11598;SDS011;5855;48.840;9.188;2022-12-13T13:25:20;14.45;;;10.80;;
11598;SDS011;5855;48.840;9.188;2022-12-13T13:27:58;14.43;;;10.50;;
11598;SDS011;5855;48.840;9.188;2022-12-13T13:30:28;13.10;;;10.57;;
11598;SDS011;5855;48.840;9.188;2022-12-13T13:32:55;12.30;;;10.25;;
11598;SDS011;5855;48.840;9.188;2022-12-13T13:47:08;13.85;;;9.88;;
11598;SDS011;5855;48.840;9.188;2022-12-13T13:49:36;12.43;;;9.40;;
11598;SDS011;5855;48.840;9.188;2022-12-13T13:52:14;11.55;;;9.32;;
11598;SDS011;5855;48.840;9.188;2022-12-13T13:54:53;11.43;;;9.05;;
11598;SDS011;5855;48.840;9.188;2022-12-13T13:57:58;13.30;;;9.85;;
11598;SDS011;5855;48.840;9.188;2022-12-13T14:01:00;13.10;;;9.52;;
11598;SDS011;5855;48.840;9.188;2022-12-13T14:03:54;12.65;;;9.73;;
11598;SDS011;5855;48.840;9.188;2022-12-13T14:09:53;12.18;;;9.20;;
11598;SDS011;5855;48.840;9.188;2022-12-13T14:12:46;12.77;;;9.85;;
11598;SDS011;5855;48.840;9.188;2022-12-13T14:16:11;13.20;;;9.70;;
11598;SDS011;5855;48.840;9.188;2022-12-13T14:22:18;10.90;;;8.95;;
11598;SDS011;5855;48.840;9.188;2022-12-13T14:24:54;11.15;;;9.20;;
11598;SDS011;5855;48.840;9.188;2022-12-13T14:27:36;11.30;;;8.52;;
11598;SDS011;5855;48.840;9.188;2022-12-13T14:30:11;11.65;;;8.70;;
11598;SDS011;5855;48.840;9.188;2022-12-13T14:32:41;11.43;;;8.55;;
11598;SDS011;5855;48.840;9.188;2022-12-13T14:35:19;10.98;;;8.25;;
11598;SDS011;5855;48.840;9.188;2022-12-13T14:37:55;12.10;;;8.55;;
11598;SDS011;5855;48.840;9.188;2022-12-13T14:40:25;13.30;;;8.63;;
11598;SDS011;5855;48.840;9.188;2022-12-13T14:42:54;14.57;;;8.43;;
11598;SDS011;5855;48.840;9.188;2022-12-13T14:45:22;12.32;;;8.88;;
11598;SDS011;5855;48.840;9.188;2022-12-13T14:47:53;11.57;;;8.32;;
11598;SDS011;5855;48.840;9.188;2022-12-13T14:50:23;10.95;;;8.32;;
11598;SDS011;5855;48.840;9.188;2022-12-13T14:52:51;13.57;;;8.52;;
11598;SDS011;5855;48.840;9.188;2022-12-13T14:55:21;10.10;;;8.10;;
11598;SDS011;5855;48.840;9.188;2022-12-13T14:57:52;11.55;;;8.82;;
11598;SDS011;5855;48.840;9.188;2022-12-13T15:00:21;12.23;;;8.38;;
11598;SDS011;5855;48.840;9.188;2022-12-13T15:02:51;10.60;;;7.72;;
11598;SDS011;5855;48.840;9.188;2022-12-13T15:05:23;13.35;;;7.75;;
11598;SDS011;5855;48.840;9.188;2022-12-13T15:07:52;10.68;;;7.95;;
11598;SDS011;5855;48.840;9.188;2022-12-13T15:10:20;12.80;;;7.93;;
11598;SDS011;5855;48.840;9.188;2022-12-13T15:12:49;11.30;;;8.15;;
11598;SDS011;5855;48.840;9.188;2022-12-13T15:15:20;12.75;;;8.68;;
11598;SDS011;5855;48.840;9.188;2022-12-13T15:17:53;10.85;;;7.50;;
11598;SDS011;5855;48.840;9.188;2022-12-13T15:20:31;11.35;;;7.90;;